createdAt,value
2022-09-07T00:01:08.669Z,101117.06
2022-09-07T00:03:36.437Z,101107.19
2022-09-07T00:06:12.762Z,101104.19
2022-09-07T00:08:43.813Z,101102.03
2022-09-07T00:11:18.076Z,101101.41
2022-09-07T00:13:49.547Z,101108.38
2022-09-07T00:16:26.334Z,101109.47
2022-09-07T00:18:57.105Z,101111.16
2022-09-07T00:21:25.195Z,101116.56
2022-09-07T00:23:52.685Z,101129.22
2022-09-07T00:26:28.119Z,101119.56
2022-09-07T00:29:04.242Z,101110.69
2022-09-07T00:31:32.002Z,101109.72
2022-09-07T00:34:02.005Z,101105.25
2022-09-07T00:36:30.339Z,101090.09
2022-09-07T00:38:58.420Z,101093.44
2022-09-07T00:41:26.556Z,101090.22
2022-09-07T00:43:59.454Z,101083.25
2022-09-07T00:46:32.216Z,101081.56
2022-09-07T00:49:19.964Z,101078.19
2022-09-07T00:52:03.460Z,101068.56
2022-09-07T00:54:50.118Z,101060.97
2022-09-07T00:57:20.430Z,101060.38
2022-09-07T00:59:52.547Z,101058.56
2022-09-07T01:02:21.355Z,101057.34
2022-09-07T01:05:04.451Z,101053.84
2022-09-07T01:07:34.131Z,101049.84
2022-09-07T01:10:02.397Z,101056.47
2022-09-07T01:12:29.663Z,101051.66
2022-09-07T01:14:57.099Z,101065.22
2022-09-07T01:17:56.231Z,101053.66
2022-09-07T01:21:15.742Z,101050.88
2022-09-07T01:24:22.685Z,101051.66
2022-09-07T01:27:46.648Z,101042.63
2022-09-07T01:30:19.668Z,101050.16
2022-09-07T01:33:51.699Z,101053.16
2022-09-07T01:36:42.019Z,101056.75
2022-09-07T01:39:09.583Z,101063.09
2022-09-07T01:42:10.040Z,101068.50
2022-09-07T01:45:04.008Z,101068.59
2022-09-07T01:47:54.620Z,101063.78
2022-09-07T01:50:50.840Z,101069.16
2022-09-07T01:53:34.674Z,101056.19
2022-09-07T01:56:20.935Z,101054.50
2022-09-07T01:59:08.354Z,101044.53
2022-09-07T02:01:53.789Z,101045.38
2022-09-07T02:04:59.544Z,101042.97
2022-09-07T02:07:36.768Z,101045.72
2022-09-07T02:10:21.710Z,101045.00
2022-09-07T02:13:49.333Z,101043.31
2022-09-07T02:16:28.244Z,101039.72
2022-09-07T02:19:10.773Z,101034.44
2022-09-07T02:21:49.859Z,101050.78
2022-09-07T02:24:31.254Z,101056.59
2022-09-07T02:27:02.837Z,101059.72
2022-09-07T02:29:31.106Z,101060.22
2022-09-07T02:31:58.782Z,101053.03
2022-09-07T02:34:26.251Z,101052.06
2022-09-07T02:36:55.437Z,101040.53
2022-09-07T02:39:22.742Z,101041.38
2022-09-07T02:41:50.146Z,101030.09
2022-09-07T02:44:31.720Z,101030.91
2022-09-07T02:47:38.601Z,101039.94
2022-09-07T02:50:53.405Z,101036.44
2022-09-07T02:54:00.658Z,101042.59
2022-09-07T02:57:10.828Z,101042.69
2022-09-07T03:00:11.627Z,101036.44
2022-09-07T03:03:24.075Z,101033.19
2022-09-07T03:06:06.981Z,101028.00
2022-09-07T03:08:48.974Z,101027.28
2022-09-07T03:11:17.408Z,101032.69
2022-09-07T03:13:44.949Z,101029.81
2022-09-07T03:16:15.132Z,101039.41
2022-09-07T03:18:44.228Z,101031.13
2022-09-07T03:21:11.647Z,101019.38
2022-09-07T03:23:39.149Z,101022.53
2022-09-07T03:26:06.538Z,101027.47
2022-09-07T03:28:33.808Z,101027.97
2022-09-07T03:31:02.894Z,101029.31
2022-09-07T03:33:30.247Z,101025.59
2022-09-07T03:36:02.552Z,101031.72
2022-09-07T03:38:31.303Z,101032.81
2022-09-07T03:41:05.609Z,101030.50
2022-09-07T03:43:34.612Z,101035.28
2022-09-07T03:46:06.254Z,101029.38
2022-09-07T03:48:36.042Z,101021.81
2022-09-07T03:51:11.072Z,101019.38
2022-09-07T03:53:43.321Z,101024.06
2022-09-07T03:56:12.038Z,101024.06
2022-09-07T03:58:40.005Z,101028.63
2022-09-07T04:01:12.108Z,101035.81
2022-09-07T04:03:39.892Z,101039.41
2022-09-07T04:06:07.422Z,101036.06
2022-09-07T04:08:38.216Z,101035.34
2022-09-07T04:11:08.773Z,101039.75
2022-09-07T04:13:38.002Z,101041.56
2022-09-07T04:16:25.595Z,101023.28
2022-09-07T04:18:58.981Z,101019.69
2022-09-07T04:21:30.497Z,101011.66
2022-09-07T04:23:58.837Z,101007.31
2022-09-07T04:26:33.636Z,100991.47
2022-09-07T04:29:02.766Z,100984.25
2022-09-07T04:31:30.445Z,100984.00
2022-09-07T04:33:57.778Z,100990.06
2022-09-07T04:36:25.028Z,100995.34
2022-09-07T04:39:05.625Z,101002.28
2022-09-07T04:41:34.942Z,100994.47
2022-09-07T04:44:05.032Z,101007.81
2022-09-07T04:46:36.924Z,101011.53
2022-09-07T04:49:10.426Z,101016.31
2022-09-07T04:51:40.087Z,101012.34
2022-09-07T04:54:07.536Z,101011.81
2022-09-07T04:56:34.912Z,101008.44
2022-09-07T04:59:02.994Z,101008.69
2022-09-07T05:01:31.154Z,101008.69
2022-09-07T05:04:01.382Z,101015.66
2022-09-07T05:06:29.369Z,101025.13
2022-09-07T05:08:58.817Z,101031.91
2022-09-07T05:11:29.671Z,101034.19
2022-09-07T05:14:01.838Z,101016.94
2022-09-07T05:16:31.647Z,101020.41
2022-09-07T05:19:04.047Z,101016.81
2022-09-07T05:21:35.193Z,101011.66
2022-09-07T05:24:04.388Z,101015.75
2022-09-07T05:26:36.496Z,101023.56
2022-09-07T05:31:54.781Z,101021.91
2022-09-07T05:34:30.599Z,101018.09
2022-09-07T05:36:58.677Z,101023.88
2022-09-07T05:39:26.763Z,101022.56
2022-09-07T05:41:54.248Z,101031.22
2022-09-07T05:47:09.871Z,101028.00
2022-09-07T05:49:37.626Z,101021.78
2022-09-07T05:52:05.155Z,101025.25
2022-09-07T05:54:32.427Z,101019.00
2022-09-07T05:56:59.702Z,101027.53
2022-09-07T05:59:27.047Z,101023.94
2022-09-07T06:01:54.443Z,101024.66
2022-09-07T06:04:21.805Z,101026.13
2022-09-07T06:07:17.750Z,101026.13
2022-09-07T06:12:25.146Z,101022.84
2022-09-07T06:14:52.522Z,101024.66
2022-09-07T06:17:21.917Z,101021.19
2022-09-07T06:19:49.283Z,101025.50
2022-09-07T06:22:17.027Z,101023.81
2022-09-07T06:24:44.344Z,101042.34
2022-09-07T06:27:11.828Z,101043.19
2022-09-07T06:29:39.281Z,101051.94
2022-09-07T06:34:53.812Z,101049.19
2022-09-07T06:37:21.117Z,101051.84
2022-09-07T06:39:49.439Z,101051.94
2022-09-07T06:42:16.898Z,101056.16
2022-09-07T06:44:48.052Z,101052.56
2022-09-07T06:47:15.660Z,101051.38
2022-09-07T06:49:42.926Z,101052.81
2022-09-07T06:52:10.244Z,101055.00
2022-09-07T06:57:24.998Z,101053.16
2022-09-07T06:59:52.471Z,101054.56
2022-09-07T07:02:19.840Z,101053.50
2022-09-07T07:04:47.347Z,101063.72
2022-09-07T07:07:15.534Z,101058.09
2022-09-07T07:09:42.844Z,101067.38
2022-09-07T07:12:11.112Z,101075.53
2022-09-07T07:14:42.689Z,101068.19
2022-09-07T07:17:13.203Z,101068.06
2022-09-07T07:19:43.545Z,101071.66
2022-09-07T07:24:58.192Z,101064.09
2022-09-07T07:27:29.634Z,101061.19
2022-09-07T07:29:57.084Z,101070.59
2022-09-07T07:32:24.408Z,101067.94
2022-09-07T07:34:51.670Z,101065.88
2022-09-07T07:37:18.984Z,101072.53
2022-09-07T07:42:35.620Z,101076.25
2022-09-07T07:47:51.489Z,101079.13
2022-09-07T07:50:34.898Z,101095.34
2022-09-07T07:55:51.369Z,101098.13
2022-09-07T07:58:19.687Z,101095.56
2022-09-07T08:00:54.878Z,101090.56
2022-09-07T08:03:24.838Z,101095.00
2022-09-07T08:05:52.998Z,101094.25
2022-09-07T08:08:21.585Z,101101.44
2022-09-07T08:10:49.491Z,101089.22
2022-09-07T08:13:17.350Z,101103.50
2022-09-07T08:15:46.711Z,101101.19
2022-09-07T08:18:17.385Z,101098.41
2022-09-07T08:20:44.825Z,101100.22
2022-09-07T08:23:12.208Z,101113.22
2022-09-07T08:25:52.701Z,101107.91
2022-09-07T08:28:23.510Z,101115.03
2022-09-07T08:30:51.119Z,101116.34
2022-09-07T08:33:18.558Z,101121.19
2022-09-07T08:36:04.591Z,101111.25
2022-09-07T08:38:34.821Z,101114.63
2022-09-07T08:41:37.703Z,101114.34
2022-09-07T08:44:30.438Z,101126.97
2022-09-07T08:47:48.624Z,101119.75
2022-09-07T08:50:34.876Z,101124.06
2022-09-07T08:53:19.484Z,101127.44
2022-09-07T08:55:57.347Z,101128.03
2022-09-07T08:58:51.164Z,101124.28
2022-09-07T09:01:37.100Z,101121.09
2022-09-07T09:04:27.143Z,101118.72
2022-09-07T09:07:21.709Z,101123.66
2022-09-07T09:10:10.311Z,101130.25
2022-09-07T09:13:15.166Z,101124.53
2022-09-07T09:16:00.713Z,101126.94
2022-09-07T09:18:50.273Z,101129.31
2022-09-07T09:21:20.043Z,101130.91
2022-09-07T09:23:55.056Z,101126.72
2022-09-07T09:26:32.441Z,101115.81
2022-09-07T09:29:21.662Z,101124.25
2022-09-07T09:31:48.998Z,101124.56
2022-09-07T09:34:23.889Z,101125.81
2022-09-07T09:36:56.728Z,101136.22
2022-09-07T09:39:34.710Z,101134.13
2022-09-07T09:42:19.411Z,101130.63
2022-09-07T09:44:47.823Z,101137.22
2022-09-07T09:47:52.579Z,101142.84
2022-09-07T09:53:33.906Z,101135.69
2022-09-07T09:56:04.567Z,101133.91
2022-09-07T10:01:35.910Z,101128.28
2022-09-07T10:04:32.310Z,101131.88
2022-09-07T10:07:26.889Z,101117.22
2022-09-07T10:09:56.485Z,101110.84
2022-09-07T10:12:36.617Z,101111.78
2022-09-07T10:15:07.622Z,101116.25
2022-09-07T10:17:43.614Z,101113.94
2022-09-07T10:20:16.790Z,101107.69
2022-09-07T10:23:19.150Z,101109.41
2022-09-07T10:25:47.624Z,101101.19
2022-09-07T10:28:25.166Z,101101.09
2022-09-07T10:31:22.122Z,101101.88
2022-09-07T10:37:08.798Z,101116.59
2022-09-07T10:40:00.787Z,101115.47
2022-09-07T10:43:20.567Z,101103.13
2022-09-07T10:45:59.198Z,101095.13
2022-09-07T10:49:02.610Z,101101.47
2022-09-07T10:52:00.008Z,101096.38
2022-09-07T10:54:51.035Z,101093.78
2022-09-07T10:57:48.869Z,101091.97
2022-09-07T11:00:22.586Z,101085.38
2022-09-07T11:03:26.875Z,101088.72
2022-09-07T11:06:25.735Z,101090.53
2022-09-07T11:09:41.916Z,101092.31
2022-09-07T11:12:38.520Z,101087.44
2022-09-07T11:15:21.419Z,101084.94
2022-09-07T11:18:17.053Z,101093.47
2022-09-07T11:20:55.556Z,101082.97
2022-09-07T11:23:43.670Z,101082.31
2022-09-07T11:26:29.451Z,101080.50
2022-09-07T11:29:30.215Z,101078.00
2022-09-07T11:32:19.073Z,101072.22
2022-09-07T11:35:19.123Z,101073.81
2022-09-07T11:37:59.349Z,101080.88
2022-09-07T11:40:44.545Z,101080.78
2022-09-07T11:43:38.136Z,101079.50
2022-09-07T11:46:32.372Z,101067.91
2022-09-07T11:49:00.048Z,101080.69
2022-09-07T11:51:53.574Z,101066.97
2022-09-07T11:54:55.126Z,101062.28
2022-09-07T11:58:06.578Z,101069.66
2022-09-07T12:01:33.921Z,101072.56
2022-09-07T12:04:34.980Z,101061.03
2022-09-07T12:07:36.144Z,101064.56
2022-09-07T12:10:49.776Z,101059.72
2022-09-07T12:13:53.196Z,101052.97
2022-09-07T12:16:28.693Z,101054.66
2022-09-07T12:19:06.523Z,101050.97
2022-09-07T12:21:53.200Z,101055.50
2022-09-07T12:24:45.383Z,101056.19
2022-09-07T12:27:21.605Z,101049.13
2022-09-07T12:30:14.381Z,101046.13
2022-09-07T12:32:54.062Z,101049.16
2022-09-07T12:35:31.127Z,101038.75
2022-09-07T12:38:17.643Z,101036.03
2022-09-07T12:41:20.827Z,101034.88
2022-09-07T12:43:52.935Z,101039.88
2022-09-07T12:46:34.712Z,101037.06
2022-09-07T12:49:52.445Z,101031.19
2022-09-07T12:52:48.657Z,101021.00
2022-09-07T12:55:28.522Z,101020.66
2022-09-07T12:58:23.244Z,101020.78
2022-09-07T13:01:48.991Z,101013.53
2022-09-07T13:04:34.114Z,101016.66
2022-09-07T13:07:50.065Z,101013.28
2022-09-07T13:10:26.214Z,101000.72
2022-09-07T13:13:03.311Z,101004.16
2022-09-07T13:16:12.058Z,100995.56
2022-09-07T13:18:43.996Z,100998.25
2022-09-07T13:21:12.003Z,100999.44
2022-09-07T13:23:45.769Z,100993.66
2022-09-07T13:26:53.521Z,100992.53
2022-09-07T13:29:51.966Z,100995.97
2022-09-07T13:35:29.420Z,100993.75
2022-09-07T13:38:04.081Z,100992.53
2022-09-07T13:40:40.375Z,100991.41
2022-09-07T13:43:24.603Z,100992.06
2022-09-07T13:45:54.586Z,100981.03
2022-09-07T13:48:46.496Z,100970.13
2022-09-07T13:51:29.157Z,100976.41
2022-09-07T13:54:43.211Z,100973.78
2022-09-07T13:57:43.361Z,100975.72
2022-09-07T14:00:16.589Z,100966.31
2022-09-07T14:02:53.184Z,100971.31
2022-09-07T14:05:24.459Z,100959.56
2022-09-07T14:07:52.601Z,100962.47
2022-09-07T14:10:25.336Z,100969.13
2022-09-07T14:13:15.921Z,100974.94
2022-09-07T14:15:50.392Z,100971.00
2022-09-07T14:18:32.169Z,100966.44
2022-09-07T14:20:59.465Z,100964.53
2022-09-07T14:23:32.704Z,100957.03
2022-09-07T14:26:24.845Z,100958.97
2022-09-07T14:28:57.189Z,100947.25
2022-09-07T14:31:28.638Z,100959.56
2022-09-07T14:34:00.568Z,100965.22
2022-09-07T14:36:45.660Z,100958.00
2022-09-07T14:39:21.005Z,100965.88
2022-09-07T14:41:51.625Z,100960.66
2022-09-07T14:44:34.883Z,100957.13
2022-09-07T14:47:29.129Z,100953.16
2022-09-07T14:50:06.003Z,100945.94
2022-09-07T14:53:33.573Z,100943.31
2022-09-07T14:55:42.699Z,100944.91
2022-09-07T14:58:16.034Z,100948.78
2022-09-07T15:04:02.797Z,100940.44
2022-09-07T15:09:38.291Z,100941.56
2022-09-07T15:12:18.350Z,100939.25
2022-09-07T15:14:47.838Z,100948.69
2022-09-07T15:17:48.124Z,100945.63
2022-09-07T15:20:53.187Z,100945.31
2022-09-07T15:23:20.473Z,100942.78
2022-09-07T15:25:53.666Z,100941.03
2022-09-07T15:34:18.402Z,100935.09
2022-09-07T15:36:55.653Z,100938.50
2022-09-07T15:39:30.547Z,100934.19
2022-09-07T15:42:00.609Z,100929.72
2022-09-07T15:44:46.236Z,100922.59
2022-09-07T15:50:06.974Z,100931.31
2022-09-07T15:52:34.372Z,100928.81
2022-09-07T15:55:01.636Z,100927.22
2022-09-07T16:00:18.943Z,100919.75
2022-09-07T16:03:07.684Z,100922.16
2022-09-07T16:05:35.949Z,100918.50
2022-09-07T16:10:53.899Z,100918.88
2022-09-07T16:13:24.124Z,100915.91
2022-09-07T16:15:52.043Z,100911.09
2022-09-07T16:18:19.375Z,100906.44
2022-09-07T16:20:47.526Z,100910.03
2022-09-07T16:23:19.406Z,100907.00
2022-09-07T16:26:04.130Z,100905.63
2022-09-07T16:28:31.797Z,100900.06
2022-09-07T16:30:59.199Z,100904.81
2022-09-07T16:33:34.340Z,100907.88
2022-09-07T16:36:14.351Z,100899.22
2022-09-07T16:38:45.926Z,100900.81
2022-09-07T16:41:20.425Z,100899.53
2022-09-07T16:43:50.091Z,100903.44
2022-09-07T16:46:23.089Z,100899.28
2022-09-07T16:48:54.725Z,100904.19
2022-09-07T16:51:24.434Z,100907.03
2022-09-07T16:53:55.867Z,100899.88
2022-09-07T16:56:27.162Z,100905.25
2022-09-07T16:59:04.889Z,100903.59
2022-09-07T17:01:37.940Z,100912.47
2022-09-07T17:04:10.669Z,100910.66
2022-09-07T17:06:40.236Z,100909.63
2022-09-07T17:09:08.346Z,100913.16
2022-09-07T17:11:37.367Z,100904.13
2022-09-07T17:14:06.674Z,100905.63
2022-09-07T17:16:41.203Z,100911.47
2022-09-07T17:22:00.701Z,100905.13
2022-09-07T17:24:29.631Z,100892.09
2022-09-07T17:26:59.575Z,100891.41
2022-09-07T17:29:30.394Z,100889.22
2022-09-07T17:34:45.607Z,100874.88
2022-09-07T17:37:12.918Z,100867.50
2022-09-07T17:39:40.259Z,100867.47
2022-09-07T17:42:07.594Z,100872.50
2022-09-07T17:44:38.090Z,100865.31
2022-09-07T17:47:06.132Z,100865.13
2022-09-07T17:49:33.860Z,100875.44
2022-09-07T17:52:01.648Z,100876.25
2022-09-07T17:54:28.981Z,100873.25
2022-09-07T17:56:56.341Z,100870.22
2022-09-07T18:02:20.389Z,100864.00
2022-09-07T18:04:50.664Z,100873.19
2022-09-07T18:07:18.015Z,100862.97
2022-09-07T18:09:45.287Z,100873.81
2022-09-07T18:12:12.676Z,100874.13
2022-09-07T18:14:43.852Z,100875.31
2022-09-07T18:17:11.350Z,100879.31
2022-09-07T18:19:38.777Z,100879.63
2022-09-07T18:22:06.083Z,100875.59
2022-09-07T18:24:36.939Z,100883.09
2022-09-07T18:27:05.307Z,100879.06
2022-09-07T18:29:35.249Z,100880.22
2022-09-07T18:32:09.520Z,100886.06
2022-09-07T18:34:40.764Z,100876.66
2022-09-07T18:37:12.034Z,100884.16
2022-09-07T18:39:40.904Z,100877.59
2022-09-07T18:42:09.728Z,100877.91
2022-09-07T18:47:28.871Z,100875.19
2022-09-07T18:49:57.151Z,100872.03
2022-09-07T18:55:12.253Z,100870.44
2022-09-07T18:57:39.561Z,100871.22
2022-09-07T19:00:16.125Z,100879.84
2022-09-07T19:02:48.779Z,100884.94
2022-09-07T19:08:04.453Z,100880.84
2022-09-07T19:10:40.784Z,100883.84
2022-09-07T19:15:37.385Z,100878.44
2022-09-07T19:18:06.574Z,100882.41
2022-09-07T19:20:35.482Z,100879.19
2022-09-07T19:23:03.650Z,100877.78
2022-09-07T19:25:30.909Z,100887.09
2022-09-07T19:27:58.169Z,100886.03
2022-09-07T19:30:25.456Z,100889.44
2022-09-07T19:32:52.699Z,100885.03
2022-09-07T19:35:19.953Z,100882.13
2022-09-07T19:37:49.097Z,100880.06
2022-09-07T19:40:19.233Z,100884.88
2022-09-07T19:42:46.810Z,100881.66
2022-09-07T19:45:15.055Z,100866.81
2022-09-07T19:47:42.426Z,100879.28
2022-09-07T19:50:10.065Z,100875.78
2022-09-07T19:52:37.308Z,100884.47
2022-09-07T19:55:05.037Z,100875.50
2022-09-07T19:57:32.349Z,100878.16
2022-09-07T20:00:00.240Z,100870.31
2022-09-07T20:02:27.507Z,100875.63
2022-09-07T20:04:54.722Z,100873.28
2022-09-07T20:07:22.015Z,100873.56
2022-09-07T20:09:51.010Z,100864.19
2022-09-07T20:12:19.249Z,100861.97
2022-09-07T20:14:46.525Z,100855.28
2022-09-07T20:17:13.815Z,100858.56
2022-09-07T20:19:41.055Z,100862.44
2022-09-07T20:22:08.274Z,100849.44
2022-09-07T20:24:35.577Z,100849.59
2022-09-07T20:27:03.502Z,100842.44
2022-09-07T20:29:31.318Z,100844.78
2022-09-07T20:32:01.554Z,100841.16
2022-09-07T20:34:29.507Z,100837.66
2022-09-07T20:36:56.941Z,100830.66
2022-09-07T20:39:24.661Z,100833.47
2022-09-07T20:41:51.934Z,100829.13
2022-09-07T20:44:19.284Z,100815.81
2022-09-07T20:46:46.873Z,100811.50
2022-09-07T20:49:14.257Z,100810.63
2022-09-07T20:51:41.541Z,100809.81
2022-09-07T20:54:08.935Z,100811.63
2022-09-07T20:56:36.195Z,100815.28
2022-09-07T20:59:03.985Z,100805.59
2022-09-07T21:01:32.782Z,100811.78
2022-09-07T21:04:01.622Z,100807.59
2022-09-07T21:06:31.974Z,100801.44
2022-09-07T21:09:00.233Z,100795.56
2022-09-07T21:11:34.539Z,100797.53
2022-09-07T21:14:08.667Z,100797.00
2022-09-07T21:16:37.171Z,100807.94
2022-09-07T21:19:11.044Z,100794.22
2022-09-07T21:21:43.201Z,100798.03
2022-09-07T21:24:22.708Z,100799.84
2022-09-07T21:26:51.119Z,100799.00
2022-09-07T21:29:26.029Z,100796.34
2022-09-07T21:31:54.624Z,100796.06
2022-09-07T21:34:23.198Z,100802.91
2022-09-07T21:36:53.287Z,100802.78
2022-09-07T21:39:21.461Z,100797.59
2022-09-07T21:41:48.859Z,100804.56
2022-09-07T21:44:19.147Z,100797.75
2022-09-07T21:46:46.735Z,100803.91
2022-09-07T21:49:14.155Z,100806.69
2022-09-07T21:51:41.474Z,100807.00
2022-09-07T21:54:09.381Z,100798.47
2022-09-07T21:56:37.075Z,100797.09
2022-09-07T21:59:04.506Z,100796.41
2022-09-07T22:01:32.266Z,100790.38
2022-09-07T22:04:06.992Z,100798.50
2022-09-07T22:06:35.175Z,100789.69
2022-09-07T22:09:05.008Z,100791.66
2022-09-07T22:11:32.585Z,100790.13
2022-09-07T22:14:04.054Z,100781.63
2022-09-07T22:16:34.986Z,100780.59
2022-09-07T22:19:02.370Z,100776.16
2022-09-07T22:21:31.177Z,100769.69
2022-09-07T22:24:05.139Z,100769.38
2022-09-07T22:26:39.891Z,100763.91
2022-09-07T22:29:11.586Z,100764.63
2022-09-07T22:31:41.652Z,100759.16
2022-09-07T22:34:10.361Z,100757.47
2022-09-07T22:36:43.427Z,100763.47
2022-09-07T22:39:18.851Z,100768.78
2022-09-07T22:41:47.672Z,100758.16
2022-09-07T22:44:19.542Z,100758.31
2022-09-07T22:46:50.776Z,100753.28
2022-09-07T22:49:18.217Z,100755.41
2022-09-07T22:51:48.857Z,100751.19
2022-09-07T22:54:17.602Z,100755.84
2022-09-07T22:56:44.941Z,100746.31
2022-09-07T22:59:13.907Z,100746.63
2022-09-07T23:01:42.569Z,100749.41
2022-09-07T23:04:11.357Z,100748.75
2022-09-07T23:06:43.797Z,100757.84
2022-09-07T23:09:18.061Z,100750.00
2022-09-07T23:11:48.042Z,100748.50
2022-09-07T23:14:21.814Z,100747.78
2022-09-07T23:16:50.545Z,100740.97
2022-09-07T23:19:20.367Z,100744.75
2022-09-07T23:21:48.040Z,100743.91
2022-09-07T23:24:18.610Z,100747.00
2022-09-07T23:26:47.023Z,100753.59
2022-09-07T23:29:15.906Z,100747.69
2022-09-07T23:31:46.979Z,100753.31
2022-09-07T23:34:14.440Z,100757.94
2022-09-07T23:36:41.982Z,100761.03
2022-09-07T23:39:09.734Z,100754.16
2022-09-07T23:41:36.958Z,100750.69
2022-09-07T23:44:04.571Z,100759.47
2022-09-07T23:46:31.936Z,100756.00
2022-09-07T23:48:59.257Z,100760.75
2022-09-07T23:51:26.588Z,100752.78
2022-09-07T23:53:54.049Z,100763.28
2022-09-07T23:56:24.439Z,100764.28
2022-09-07T23:58:52.407Z,100750.59
